NCAR-RAP Real-Time Weather Data

Output produced by METARs form (19 June 2018  07:01 UTC)
found at http://weather.rap.ucar.edu/surface/
 
Conditions at: KBKV observed 19 June 2018  06:53 UTC
Temperature: 24.4°C (76°F)
Dewpoint: 22.2°C (72°F) [RH = 88%]
Pressure (altimeter): 30.04 inches Hg (1017.4 mb)
[Sea-level pressure: 1017.2 mb]
Winds: from the ESE (110 degrees) at 6 MPH (5 knots; 2.6 m/s)
Visibility: 10 or more miles (16+ km)
Ceiling: at least 12,000 feet AGL
Clouds: sky clear below 12,000 feet AGL
Present Weather: automated observation with no human augmentation;
there may or may not be significant weather present at this time
KBKV 190653Z AUTO 11005KT 10SM CLR 24/22 A3004 RMK AO2 SLP172 T02440222

Conditions at: KBKV observed 19 June 2018  05:53 UTC
Temperature: 25.0°C (77°F)
Dewpoint: 21.7°C (71°F) [RH = 82%]
Pressure (altimeter): 30.06 inches Hg (1018.0 mb)
[Sea-level pressure: 1017.6 mb]
Winds: from the SE (130 degrees) at 5 MPH (4 knots; 2.1 m/s)
Visibility: 10 or more miles (16+ km)
Ceiling: at least 12,000 feet AGL
Clouds: sky clear below 12,000 feet AGL
Present Weather: automated observation with no human augmentation;
there may or may not be significant weather present at this time
KBKV 190553Z AUTO 13004KT 10SM CLR 25/22 A3006 RMK AO2 SLP176 T02500217 10294 20244 58008

Conditions at: KBKV observed 19 June 2018  03:53 UTC
Temperature: 26.1°C (79°F)
Dewpoint: 22.8°C (73°F) [RH = 82%]
Pressure (altimeter): 30.09 inches Hg (1019.0 mb)
[Sea-level pressure: 1018.6 mb]
Winds: calm
Visibility: 10 or more miles (16+ km)
Ceiling: at least 12,000 feet AGL
Clouds: few clouds at 3600 feet AGL
Present Weather: automated observation with no human augmentation;
there may or may not be significant weather present at this time
KBKV 190353Z AUTO 00000KT 10SM FEW036 26/23 A3009 RMK AO2 LTG DSNT SW SLP186 T02610228

Conditions at: KBKV observed 19 June 2018  02:53 UTC
Temperature: 26.7°C (80°F)
Dewpoint: 22.8°C (73°F) [RH = 79%]
Pressure (altimeter): 30.08 inches Hg (1018.7 mb)
[Sea-level pressure: 1018.5 mb]
Winds: variable direction winds at 3 MPH (3 knots; 1.6 m/s)
Visibility: 10 or more miles (16+ km)
Ceiling: 4000 feet AGL
Clouds: scattered clouds at 3200 feet AGL
broken clouds at 4000 feet AGL
Present Weather: no significant weather observed at this time
KBKV 190253Z VRB03KT 10SM SCT032 BKN040 27/23 A3008 RMK AO2 SLP185 T02670228 53010

Conditions at: KBKV observed 19 June 2018  01:53 UTC
Temperature: 27.8°C (82°F)
Dewpoint: 23.3°C (74°F) [RH = 77%]
Pressure (altimeter): 30.07 inches Hg (1018.4 mb)
[Sea-level pressure: 1017.9 mb]
Winds: from the NNE (30 degrees) at 3 MPH (3 knots; 1.6 m/s)
Visibility: 10 or more miles (16+ km)
Ceiling: 3700 feet AGL
Clouds: broken clouds at 3700 feet AGL
broken clouds at 5000 feet AGL
Present Weather: no significant weather observed at this time
KBKV 190153Z 03003KT 10SM BKN037 BKN050 28/23 A3007 RMK AO2 LTG DSNT SW AND W SLP179 T02780233

Conditions at: KBKV observed 19 June 2018  01:39 UTC
Temperature: 27.2°C (81°F)
Dewpoint: 23.3°C (74°F) [RH = 79%]
Pressure (altimeter): 30.06 inches Hg (1018.0 mb)
Winds: calm
Visibility: 10 or more miles (16+ km)
Ceiling: 4700 feet AGL
Clouds: scattered clouds at 3700 feet AGL
broken clouds at 4700 feet AGL
broken clouds at 6000 feet AGL
Present Weather: VCTS  (thunderstorm in vicinity)
KBKV 190139Z 00000KT 10SM VCTS SCT037 BKN047 BKN060 27/23 A3006 RMK AO2 LTG DSNT SW AND W T02720233

Conditions at: KBKV observed 19 June 2018  00:53 UTC
Temperature: 27.8°C (82°F)
Dewpoint: 23.3°C (74°F) [RH = 77%]
Pressure (altimeter): 30.05 inches Hg (1017.7 mb)
[Sea-level pressure: 1017.4 mb]
Winds: from the SW (220 degrees) at 5 MPH (4 knots; 2.1 m/s)
Visibility: 10 or more miles (16+ km)
Ceiling: at least 12,000 feet AGL
Clouds: few clouds at 3900 feet AGL
scattered clouds at 5500 feet AGL
scattered clouds at 11000 feet AGL
Present Weather: no significant weather observed at this time
KBKV 190053Z 22004KT 10SM FEW039 SCT055 SCT110 28/23 A3005 RMK AO2 LTG DSNT NW TSE29 SLP174 T02780233

Conditions at: KBKV observed 19 June 2018  00:35 UTC
Temperature: 28.3°C (83°F)
Dewpoint: 23.9°C (75°F) [RH = 77%]
Pressure (altimeter): 30.06 inches Hg (1018.0 mb)
Winds: calm
Visibility: 10 or more miles (16+ km)
Ceiling: 3900 feet AGL
Clouds: broken clouds at 3900 feet AGL
broken clouds at 5000 feet AGL
overcast cloud deck at 11000 feet AGL
Present Weather: no significant weather observed at this time
KBKV 190035Z 00000KT 10SM BKN039 BKN050 OVC110 28/24 A3006 RMK AO2 LTG DSNT N AND NW TSE29 T02830239

Conditions at: KBKV observed 18 June 2018  23:53 UTC
Temperature: 28.9°C (84°F)
Dewpoint: 23.3°C (74°F) [RH = 72%]
Pressure (altimeter): 30.05 inches Hg (1017.7 mb)
[Sea-level pressure: 1017.4 mb]
Winds: from the W (270 degrees) at 7 MPH (6 knots; 3.1 m/s)
Visibility: 10 or more miles (16+ km)
Ceiling: 3600 feet AGL
Clouds: broken clouds at 3600 feet AGL
overcast cloud deck at 5000 feet AGL
Present Weather: TS  (thunderstorm)
KBKV 182353Z 27006KT 10SM TS BKN036 OVC050 29/23 A3005 RMK AO2 LTG DSNT N AND S TSB49 SLP174 T02890233 10344 20289 55000

Conditions at: KBKV observed 18 June 2018  23:31 UTC
Temperature: 31.7°C (89°F)
Dewpoint: 23.3°C (74°F) [RH = 61%]
Pressure (altimeter): 30.05 inches Hg (1017.7 mb)
Winds: from the N (350 degrees) at 8 MPH (7 knots; 3.6 m/s)
Visibility: 10 or more miles (16+ km)
Ceiling: 4000 feet AGL
Clouds: broken clouds at 4000 feet AGL
overcast cloud deck at 5000 feet AGL
Present Weather: VCTS  (thunderstorm in vicinity)
KBKV 182331Z 35007KT 10SM VCTS BKN040 OVC050 32/23 A3005 RMK AO2 LTG DSNT N AND SE AND S T03170233

Conditions at: KBKV observed 18 June 2018  22:53 UTC
Temperature: 32.2°C (90°F)
Dewpoint: 23.3°C (74°F) [RH = 59%]
Pressure (altimeter): 30.04 inches Hg (1017.4 mb)
[Sea-level pressure: 1017.1 mb]
Winds: from the W (260 degrees) at 8 MPH (7 knots; 3.6 m/s)
Visibility: 10 or more miles (16+ km)
Ceiling: at least 12,000 feet AGL
Clouds: few clouds at 4200 feet AGL
scattered clouds at 5500 feet AGL
Present Weather: no significant weather observed at this time
KBKV 182253Z 26007KT 10SM FEW042 SCT055 32/23 A3004 RMK AO2 LTG DSNT N SLP171 T03220233

Conditions at: KBKV observed 18 June 2018  21:53 UTC
Temperature: 32.8°C (91°F)
Dewpoint: 22.8°C (73°F) [RH = 56%]
Pressure (altimeter): 30.04 inches Hg (1017.4 mb)
[Sea-level pressure: 1017.1 mb]
Winds: from the WNW (300 degrees) at 3 MPH (3 knots; 1.6 m/s)
Visibility: 10 or more miles (16+ km)
Ceiling: at least 12,000 feet AGL
Clouds: few clouds at 5500 feet AGL
Present Weather: no significant weather observed at this time
KBKV 182153Z 30003KT 10SM FEW055 33/23 A3004 RMK AO2 SLP171 T03280228

Conditions at: KBKV observed 18 June 2018  20:53 UTC
Temperature: 32.8°C (91°F)
Dewpoint: 22.8°C (73°F) [RH = 56%]
Pressure (altimeter): 30.05 inches Hg (1017.7 mb)
[Sea-level pressure: 1017.4 mb]
Winds: from the W (260 degrees) at 6 MPH (5 knots; 2.6 m/s)
Visibility: 10 or more miles (16+ km)
Ceiling: at least 12,000 feet AGL
Clouds: sky clear below 12,000 feet AGL
Present Weather: no significant weather observed at this time
KBKV 182053Z 26005KT 10SM CLR 33/23 A3005 RMK AO2 SLP174 T03280228 57021

Conditions at: KBKV observed 18 June 2018  19:53 UTC
Temperature: 33.9°C (93°F)
Dewpoint: 21.7°C (71°F) [RH = 49%]
Pressure (altimeter): 30.07 inches Hg (1018.4 mb)
[Sea-level pressure: 1018.1 mb]
Winds: from the NNE (20 degrees) at 6 MPH (5 knots; 2.6 m/s)
Visibility: 10 or more miles (16+ km)
Ceiling: at least 12,000 feet AGL
Clouds: scattered clouds at 4200 feet AGL
Present Weather: no significant weather observed at this time
KBKV 181953Z 02005KT 10SM SCT042 34/22 A3007 RMK AO2 LTG DSNT NW SLP181 T03390217

Conditions at: KBKV observed 18 June 2018  18:53 UTC
Temperature: 33.9°C (93°F)
Dewpoint: 21.7°C (71°F) [RH = 49%]
Pressure (altimeter): 30.09 inches Hg (1019.0 mb)
[Sea-level pressure: 1018.9 mb]
Winds: variable direction winds at 7 MPH (6 knots; 3.1 m/s)
Visibility: 10 or more miles (16+ km)
Ceiling: at least 12,000 feet AGL
Clouds: few clouds at 5000 feet AGL
scattered clouds at 6000 feet AGL
Present Weather: no significant weather observed at this time
KBKV 181853Z VRB06KT 10SM FEW050 SCT060 34/22 A3009 RMK AO2 SLP189 T03390217

Conditions at: KBKV observed 18 June 2018  17:53 UTC
Temperature: 32.8°C (91°F)
Dewpoint: 21.7°C (71°F) [RH = 52%]
Pressure (altimeter): 30.11 inches Hg (1019.7 mb)
[Sea-level pressure: 1019.5 mb]
Winds: from the NNE (30 degrees) at 7 MPH (6 knots; 3.1 m/s)
Visibility: 10 or more miles (16+ km)
Ceiling: 6500 feet AGL
Clouds: few clouds at 4600 feet AGL
broken clouds at 6500 feet AGL
Present Weather: no significant weather observed at this time
KBKV 181753Z 03006KT 10SM FEW046 BKN065 33/22 A3011 RMK AO2 SLP195 T03280217 10339 20256 58013

Conditions at: KBKV observed 18 June 2018  16:53 UTC
Temperature: 32.8°C (91°F)
Dewpoint: 22.2°C (72°F) [RH = 54%]
Pressure (altimeter): 30.13 inches Hg (1020.4 mb)
[Sea-level pressure: 1020.0 mb]
Winds: from the NE (50 degrees) at 5 MPH (4 knots; 2.1 m/s)
Visibility: 10 or more miles (16+ km)
Ceiling: at least 12,000 feet AGL
Clouds: scattered clouds at 4000 feet AGL
Present Weather: no significant weather observed at this time
KBKV 181653Z 05004KT 10SM SCT040 33/22 A3013 RMK AO2 SLP200 T03280222

Conditions at: KBKV observed 18 June 2018  15:53 UTC
Temperature: 31.7°C (89°F)
Dewpoint: 21.7°C (71°F) [RH = 56%]
Pressure (altimeter): 30.14 inches Hg (1020.7 mb)
[Sea-level pressure: 1020.4 mb]
Winds: from the ESE (120 degrees) at 5 MPH (4 knots; 2.1 m/s)
Visibility: 10 or more miles (16+ km)
Ceiling: at least 12,000 feet AGL
Clouds: few clouds at 3500 feet AGL
Present Weather: no significant weather observed at this time
KBKV 181553Z 12004KT 10SM FEW035 32/22 A3014 RMK AO2 SLP204 T03170217

Conditions at: KBKV observed 18 June 2018  14:53 UTC
Temperature: 30.6°C (87°F)
Dewpoint: 22.2°C (72°F) [RH = 61%]
Pressure (altimeter): 30.15 inches Hg (1021.1 mb)
[Sea-level pressure: 1020.8 mb]
Winds: from the SE (130 degrees) at 5 MPH (4 knots; 2.1 m/s)
Visibility: 10 or more miles (16+ km)
Ceiling: at least 12,000 feet AGL
Clouds: sky clear below 12,000 feet AGL
Present Weather: no significant weather observed at this time
KBKV 181453Z 13004KT 10SM CLR 31/22 A3015 RMK AO2 SLP208 T03060222 51006

Conditions at: KBKV observed 18 June 2018  13:53 UTC
Temperature: 29.4°C (85°F)
Dewpoint: 22.8°C (73°F) [RH = 68%]
Pressure (altimeter): 30.15 inches Hg (1021.1 mb)
[Sea-level pressure: 1020.8 mb]
Winds: from the E (100 degrees) at 8 MPH (7 knots; 3.6 m/s)
Visibility: 10 or more miles (16+ km)
Ceiling: at least 12,000 feet AGL
Clouds: sky clear below 12,000 feet AGL
Present Weather: no significant weather observed at this time
KBKV 181353Z 10007KT 10SM CLR 29/23 A3015 RMK AO2 SLP208 T02940228

Conditions at: KBKV observed 18 June 2018  12:53 UTC
Temperature: 27.8°C (82°F)
Dewpoint: 23.3°C (74°F) [RH = 77%]
Pressure (altimeter): 30.15 inches Hg (1021.1 mb)
[Sea-level pressure: 1020.7 mb]
Winds: from the E (80 degrees) at 5 MPH (4 knots; 2.1 m/s)
Visibility: 10 or more miles (16+ km)
Ceiling: at least 12,000 feet AGL
Clouds: sky clear below 12,000 feet AGL
Present Weather: no significant weather observed at this time
KBKV 181253Z 08004KT 10SM CLR 28/23 A3015 RMK AO2 SLP207 T02780233

Conditions at: KBKV observed 18 June 2018  11:53 UTC
Temperature: 25.6°C (78°F)
Dewpoint: 23.3°C (74°F) [RH = 87%]
Pressure (altimeter): 30.14 inches Hg (1020.7 mb)
[Sea-level pressure: 1020.2 mb]
Winds: from the NE (50 degrees) at 5 MPH (4 knots; 2.1 m/s)
Visibility: 10 or more miles (16+ km)
Ceiling: at least 12,000 feet AGL
Clouds: sky clear below 12,000 feet AGL
Present Weather: no significant weather observed at this time
KBKV 181153Z 05004KT 10SM CLR 26/23 A3014 RMK AO2 SLP202 T02560233 10256 20228 51015

Conditions at: KBKV observed 18 June 2018  10:53 UTC
Temperature: 23.3°C (74°F)
Dewpoint: 22.2°C (72°F) [RH = 94%]
Pressure (altimeter): 30.12 inches Hg (1020.1 mb)
[Sea-level pressure: 1019.8 mb]
Winds: from the ENE (60 degrees) at 3 MPH (3 knots; 1.6 m/s)
Visibility: 10 or more miles (16+ km)
Ceiling: at least 12,000 feet AGL
Clouds: sky clear below 12,000 feet AGL
Present Weather: no significant weather observed at this time
KBKV 181053Z 06003KT 10SM CLR 23/22 A3012 RMK AO2 SLP198 T02330222

Conditions at: KBKV observed 18 June 2018  09:53 UTC
Temperature: 23.3°C (74°F)
Dewpoint: 22.2°C (72°F) [RH = 94%]
Pressure (altimeter): 30.11 inches Hg (1019.7 mb)
[Sea-level pressure: 1019.2 mb]
Winds: from the ENE (70 degrees) at 3 MPH (3 knots; 1.6 m/s)
Visibility: 10 or more miles (16+ km)
Ceiling: at least 12,000 feet AGL
Clouds: sky clear below 12,000 feet AGL
Present Weather: automated observation with no human augmentation;
there may or may not be significant weather present at this time
KBKV 180953Z AUTO 07003KT 10SM CLR 23/22 A3011 RMK AO2 SLP192 T02330222

Conditions at: KBKV observed 18 June 2018  08:53 UTC
Temperature: 23.3°C (74°F)
Dewpoint: 22.2°C (72°F) [RH = 94%]
Pressure (altimeter): 30.09 inches Hg (1019.0 mb)
[Sea-level pressure: 1018.7 mb]
Winds: calm
Visibility: 10 or more miles (16+ km)
Ceiling: at least 12,000 feet AGL
Clouds: sky clear below 12,000 feet AGL
Present Weather: automated observation with no human augmentation;
there may or may not be significant weather present at this time
KBKV 180853Z AUTO 00000KT 10SM CLR 23/22 A3009 RMK AO2 SLP187 T02330222 56013

Conditions at: KBKV observed 18 June 2018  07:53 UTC
Temperature: 23.9°C (75°F)
Dewpoint: 22.2°C (72°F) [RH = 90%]
Pressure (altimeter): 30.09 inches Hg (1019.0 mb)
[Sea-level pressure: 1018.8 mb]
Winds: calm
Visibility: 10 or more miles (16+ km)
Ceiling: at least 12,000 feet AGL
Clouds: sky clear below 12,000 feet AGL
Present Weather: automated observation with no human augmentation;
there may or may not be significant weather present at this time
KBKV 180753Z AUTO 00000KT 10SM CLR 24/22 A3009 RMK AO2 SLP188 T02390222

Conditions at: KBKV observed 18 June 2018  06:53 UTC
Temperature: 23.9°C (75°F)
Dewpoint: 22.2°C (72°F) [RH = 90%]
Pressure (altimeter): 30.11 inches Hg (1019.7 mb)
[Sea-level pressure: 1019.4 mb]
Winds: from the ENE (60 degrees) at 3 MPH (3 knots; 1.6 m/s)
Visibility: 10 or more miles (16+ km)
Ceiling: at least 12,000 feet AGL
Clouds: sky clear below 12,000 feet AGL
Present Weather: automated observation with no human augmentation;
there may or may not be significant weather present at this time
KBKV 180653Z AUTO 06003KT 10SM CLR 24/22 A3011 RMK AO2 SLP194 T02390222

Conditions at: KBKV observed 18 June 2018  05:53 UTC
Temperature: 23.9°C (75°F)
Dewpoint: 22.2°C (72°F) [RH = 90%]
Pressure (altimeter): 30.13 inches Hg (1020.4 mb)
[Sea-level pressure: 1020.0 mb]
Winds: calm
Visibility: 10 or more miles (16+ km)
Ceiling: at least 12,000 feet AGL
Clouds: sky clear below 12,000 feet AGL
Present Weather: automated observation with no human augmentation;
there may or may not be significant weather present at this time
KBKV 180553Z AUTO 00000KT 10SM CLR 24/22 A3013 RMK AO2 SLP200 T02390222 10294 20239 58001

Conditions at: KBKV observed 18 June 2018  04:53 UTC
Temperature: 25.6°C (78°F)
Dewpoint: 22.2°C (72°F) [RH = 82%]
Pressure (altimeter): 30.14 inches Hg (1020.7 mb)
[Sea-level pressure: 1020.3 mb]
Winds: from the NE (50 degrees) at 3 MPH (3 knots; 1.6 m/s)
Visibility: 10 or more miles (16+ km)
Ceiling: at least 12,000 feet AGL
Clouds: sky clear below 12,000 feet AGL
Present Weather: automated observation with no human augmentation;
there may or may not be significant weather present at this time
KBKV 180453Z AUTO 05003KT 10SM CLR 26/22 A3014 RMK AO2 SLP203 T02560222 403440222

Conditions at: KBKV observed 18 June 2018  03:53 UTC
Temperature: 25.0°C (77°F)
Dewpoint: 22.2°C (72°F) [RH = 84%]
Pressure (altimeter): 30.13 inches Hg (1020.4 mb)
[Sea-level pressure: 1020.1 mb]
Winds: from the NW (320 degrees) at 3 MPH (3 knots; 1.6 m/s)
Visibility: 10 or more miles (16+ km)
Ceiling: at least 12,000 feet AGL
Clouds: sky clear below 12,000 feet AGL
Present Weather: automated observation with no human augmentation;
there may or may not be significant weather present at this time
KBKV 180353Z AUTO 32003KT 10SM CLR 25/22 A3013 RMK AO2 SLP201 T02500222

Conditions at: KBKV observed 18 June 2018  02:53 UTC
Temperature: 26.1°C (79°F)
Dewpoint: 22.2°C (72°F) [RH = 79%]
Pressure (altimeter): 30.13 inches Hg (1020.4 mb)
[Sea-level pressure: 1020.1 mb]
Winds: calm
Visibility: 10 or more miles (16+ km)
Ceiling: at least 12,000 feet AGL
Clouds: sky clear below 12,000 feet AGL
Present Weather: automated observation with no human augmentation;
there may or may not be significant weather present at this time
KBKV 180253Z AUTO 00000KT 10SM CLR 26/22 A3013 RMK AO2 SLP201 T02610222 51016

Conditions at: KBKV observed 18 June 2018  01:53 UTC
Temperature: 26.7°C (80°F)
Dewpoint: 22.2°C (72°F) [RH = 76%]
Pressure (altimeter): 30.12 inches Hg (1020.1 mb)
[Sea-level pressure: 1019.8 mb]
Winds: from the ENE (60 degrees) at 6 MPH (5 knots; 2.6 m/s)
Visibility: 10 or more miles (16+ km)
Ceiling: at least 12,000 feet AGL
Clouds: few clouds at 5500 feet AGL
Present Weather: automated observation with no human augmentation;
there may or may not be significant weather present at this time
KBKV 180153Z AUTO 06005KT 10SM FEW055 27/22 A3012 RMK AO2 LTG DSNT SW AND W SLP198 T02670222

Conditions at: KBKV observed 18 June 2018  00:53 UTC
Temperature: 28.3°C (83°F)
Dewpoint: 21.7°C (71°F) [RH = 67%]
Pressure (altimeter): 30.12 inches Hg (1020.1 mb)
[Sea-level pressure: 1019.9 mb]
Winds: from the NNE (30 degrees) at 6 MPH (5 knots; 2.6 m/s)
Visibility: 10 or more miles (16+ km)
Ceiling: 5000 feet AGL
Clouds: broken clouds at 5000 feet AGL
broken clouds at 6000 feet AGL
Present Weather: no significant weather observed at this time
KBKV 180053Z 03005KT 10SM BKN050 BKN060 28/22 A3012 RMK AO2 LTG DSNT N AND NW TSB21E39 SLP199 T02830217

Conditions at: KBKV observed 18 June 2018  00:45 UTC
Temperature: 28.3°C (83°F)
Dewpoint: 21.7°C (71°F) [RH = 67%]
Pressure (altimeter): 30.12 inches Hg (1020.1 mb)
Winds: from the NE (40 degrees) at 5 MPH (4 knots; 2.1 m/s)
Visibility: 10 or more miles (16+ km)
Ceiling: 4900 feet AGL
Clouds: broken clouds at 4900 feet AGL
Present Weather: no significant weather observed at this time
KBKV 180045Z 04004KT 10SM BKN049 28/22 A3012 RMK AO2 LTG DSNT N AND NW TSB21E39 T02830217

Conditions at: KBKV observed 18 June 2018  00:27 UTC
Temperature: 28.3°C (83°F)
Dewpoint: 21.7°C (71°F) [RH = 67%]
Pressure (altimeter): 30.11 inches Hg (1019.7 mb)
Winds: from the E (100 degrees) at 3 MPH (3 knots; 1.6 m/s)
Visibility: 10 or more miles (16+ km)
Ceiling: at least 12,000 feet AGL
Clouds: few clouds at 4500 feet AGL
Present Weather: TS  (thunderstorm)
KBKV 180027Z 10003KT 10SM TS FEW045 28/22 A3011 RMK AO2 LTG DSNT N AND NW TSB21 T02830217

Conditions at: KBKV observed 18 June 2018  00:11 UTC
Temperature: 28.9°C (84°F)
Dewpoint: 22.8°C (73°F) [RH = 70%]
Pressure (altimeter): 30.10 inches Hg (1019.4 mb)
Winds: from the ESE (110 degrees) at 8 MPH (7 knots; 3.6 m/s)
Visibility: 10 or more miles (16+ km)
Ceiling: 4400 feet AGL
Clouds: few clouds at 3500 feet AGL
broken clouds at 4400 feet AGL
Present Weather: no significant weather observed at this time
KBKV 180011Z 11007KT 10SM FEW035 BKN044 29/23 A3010 RMK AO2 LTG DSNT N AND NW T02890228

Conditions at: KBKV observed 17 June 2018  23:53 UTC
Temperature: 29.4°C (85°F)
Dewpoint: 22.2°C (72°F) [RH = 65%]
Pressure (altimeter): 30.08 inches Hg (1018.7 mb)
[Sea-level pressure: 1018.5 mb]
Winds: from the E (90 degrees) at 7 MPH (6 knots; 3.1 m/s)
Visibility: 10 or more miles (16+ km)
Ceiling: 3500 feet AGL
Clouds: broken clouds at 3500 feet AGL
broken clouds at 5000 feet AGL
overcast cloud deck at 6000 feet AGL
Present Weather: VCTS  (thunderstorm in vicinity)
KBKV 172353Z 09006KT 10SM VCTS BKN035 BKN050 OVC060 29/22 A3008 RMK AO2 LTG DSNT N AND NW SLP185 T02940222 10344 20294 53002

Conditions at: KBKV observed 17 June 2018  22:53 UTC
Temperature: 31.1°C (88°F)
Dewpoint: 22.8°C (73°F) [RH = 61%]
Pressure (altimeter): 30.08 inches Hg (1018.7 mb)
[Sea-level pressure: 1018.2 mb]
Winds: from the W (260 degrees) at 5 MPH (4 knots; 2.1 m/s)
Visibility: 10 or more miles (16+ km)
Ceiling: at least 12,000 feet AGL
Clouds: few clouds at 5500 feet AGL
Present Weather: no significant weather observed at this time
KBKV 172253Z 26004KT 10SM FEW055 31/23 A3008 RMK AO2 LTG DSNT NW SLP182 T03110228

Conditions at: KBKV observed 17 June 2018  22:22 UTC
Temperature: 31.1°C (88°F)
Dewpoint: 23.3°C (74°F) [RH = 63%]
Pressure (altimeter): 30.08 inches Hg (1018.7 mb)
Winds: from the W (280 degrees) at 9 MPH (8 knots; 4.2 m/s)
Visibility: 10 or more miles (16+ km)
Ceiling: at least 12,000 feet AGL
Clouds: sky clear below 12,000 feet AGL
Present Weather: no significant weather observed at this time
KBKV 172222Z 28008KT 10SM CLR 31/23 A3008 RMK AO2 LTG DSNT SW-N T03110233

Conditions at: KBKV observed 17 June 2018  21:53 UTC
Temperature: 30.6°C (87°F)
Dewpoint: 23.3°C (74°F) [RH = 65%]
Pressure (altimeter): 30.06 inches Hg (1018.0 mb)
[Sea-level pressure: 1017.8 mb]
Winds: from the WNW (300 degrees) at 6 MPH (5 knots; 2.6 m/s)
Visibility: 10 or more miles (16+ km)
Ceiling: at least 12,000 feet AGL
Clouds: sky clear below 12,000 feet AGL
Present Weather: VCTS  (thunderstorm in vicinity)
KBKV 172153Z 30005KT 10SM VCTS CLR 31/23 A3006 RMK AO2 LTG DSNT SW AND W SLP178 T03060233

Conditions at: KBKV observed 17 June 2018  20:53 UTC
Temperature: 33.3°C (92°F)
Dewpoint: 22.2°C (72°F) [RH = 52%]
Pressure (altimeter): 30.08 inches Hg (1018.7 mb)
[Sea-level pressure: 1018.3 mb]
Winds: variable direction winds at 6 MPH (5 knots; 2.6 m/s)
Visibility: 10 or more miles (16+ km)
Ceiling: at least 12,000 feet AGL
Clouds: few clouds at 7000 feet AGL
Present Weather: VCTS  (thunderstorm in vicinity)
KBKV 172053Z VRB05KT 10SM VCTS FEW070 33/22 A3008 RMK AO2 LTG DSNT SW SLP183 T03330222 56016

Conditions at: KBKV observed 17 June 2018  20:46 UTC
Temperature: 33.9°C (93°F)
Dewpoint: 22.2°C (72°F) [RH = 51%]
Pressure (altimeter): 30.08 inches Hg (1018.7 mb)
Winds: from the ESE (110 degrees) at 8 MPH (7 knots; 3.6 m/s)
Visibility: 10 or more miles (16+ km)
Ceiling: at least 12,000 feet AGL
Clouds: scattered clouds at 6500 feet AGL
Present Weather: VCTS  (thunderstorm in vicinity)
KBKV 172046Z 11007KT 10SM VCTS SCT065 34/22 A3008 RMK AO2 LTG DSNT SW T03390222

Conditions at: KBKV observed 17 June 2018  19:53 UTC
Temperature: 33.9°C (93°F)
Dewpoint: 21.1°C (70°F) [RH = 47%]
Pressure (altimeter): 30.09 inches Hg (1019.0 mb)
[Sea-level pressure: 1018.7 mb]
Winds: variable direction winds at 7 MPH (6 knots; 3.1 m/s)
Visibility: 10 or more miles (16+ km)
Ceiling: at least 12,000 feet AGL
Clouds: sky clear below 12,000 feet AGL
Present Weather: no significant weather observed at this time
KBKV 171953Z VRB06KT 10SM CLR 34/21 A3009 RMK AO2 SLP187 T03390211

Conditions at: KBKV observed 17 June 2018  18:53 UTC
Temperature: 33.9°C (93°F)
Dewpoint: 21.7°C (71°F) [RH = 49%]
Pressure (altimeter): 30.11 inches Hg (1019.7 mb)
[Sea-level pressure: 1019.3 mb]
Winds: from the NE (40 degrees) at 8 MPH (7 knots; 3.6 m/s)
Visibility: 10 or more miles (16+ km)
Ceiling: at least 12,000 feet AGL
Clouds: scattered clouds at 4600 feet AGL
Present Weather: no significant weather observed at this time
KBKV 171853Z 04007KT 10SM SCT046 34/22 A3011 RMK AO2 SLP193 T03390217

Conditions at: KBKV observed 17 June 2018  17:53 UTC
Temperature: 32.8°C (91°F)
Dewpoint: 22.8°C (73°F) [RH = 56%]
Pressure (altimeter): 30.13 inches Hg (1020.4 mb)
[Sea-level pressure: 1019.9 mb]
Winds: from the N (10 degrees) at 6 MPH (5 knots; 2.6 m/s)
Visibility: 10 or more miles (16+ km)
Ceiling: at least 12,000 feet AGL
Clouds: sky clear below 12,000 feet AGL
Present Weather: no significant weather observed at this time
KBKV 171753Z 01005KT 10SM CLR 33/23 A3013 RMK AO2 SLP199 T03280228 10328 20239 58010

Conditions at: KBKV observed 17 June 2018  16:53 UTC
Temperature: 32.2°C (90°F)
Dewpoint: 22.2°C (72°F) [RH = 56%]
Pressure (altimeter): 30.15 inches Hg (1021.1 mb)
[Sea-level pressure: 1020.6 mb]
Winds: from the NNE (20 degrees) at 6 MPH (5 knots; 2.6 m/s)
Visibility: 10 or more miles (16+ km)
Ceiling: at least 12,000 feet AGL
Clouds: few clouds at 3200 feet AGL
Present Weather: no significant weather observed at this time
KBKV 171653Z 02005KT 10SM FEW032 32/22 A3015 RMK AO2 SLP206 T03220222

Conditions at: KBKV observed 17 June 2018  15:53 UTC
Temperature: 31.1°C (88°F)
Dewpoint: 22.8°C (73°F) [RH = 61%]
Pressure (altimeter): 30.15 inches Hg (1021.1 mb)
[Sea-level pressure: 1020.9 mb]
Winds: from the NNE (30 degrees) at 9 MPH (8 knots; 4.2 m/s)
Visibility: 10 or more miles (16+ km)
Ceiling: at least 12,000 feet AGL
Clouds: sky clear below 12,000 feet AGL
Present Weather: no significant weather observed at this time
KBKV 171553Z 03008KT 10SM CLR 31/23 A3015 RMK AO2 SLP209 T03110228

Conditions at: KBKV observed 17 June 2018  14:53 UTC
Temperature: 30.6°C (87°F)
Dewpoint: 23.3°C (74°F) [RH = 65%]
Pressure (altimeter): 30.16 inches Hg (1021.4 mb)
[Sea-level pressure: 1020.9 mb]
Winds: from the ENE (70 degrees) at 6 MPH (5 knots; 2.6 m/s)
Visibility: 10 or more miles (16+ km)
Ceiling: at least 12,000 feet AGL
Clouds: sky clear below 12,000 feet AGL
Present Weather: no significant weather observed at this time
KBKV 171453Z 07005KT 10SM CLR 31/23 A3016 RMK AO2 SLP209 T03060233 50011

Conditions at: KBKV observed 17 June 2018  13:53 UTC
Temperature: 28.3°C (83°F)
Dewpoint: 22.8°C (73°F) [RH = 72%]
Pressure (altimeter): 30.16 inches Hg (1021.4 mb)
[Sea-level pressure: 1021.1 mb]
Winds: calm
Visibility: 10 or more miles (16+ km)
Ceiling: at least 12,000 feet AGL
Clouds: sky clear below 12,000 feet AGL
Present Weather: no significant weather observed at this time
KBKV 171353Z 00000KT 10SM CLR 28/23 A3016 RMK AO2 SLP211 T02830228

Conditions at: KBKV observed 17 June 2018  12:53 UTC
Temperature: 25.6°C (78°F)
Dewpoint: 22.8°C (73°F) [RH = 85%]
Pressure (altimeter): 30.15 inches Hg (1021.1 mb)
[Sea-level pressure: 1020.7 mb]
Winds: calm
Visibility: 10 or more miles (16+ km)
Ceiling: at least 12,000 feet AGL
Clouds: sky clear below 12,000 feet AGL
Present Weather: no significant weather observed at this time
KBKV 171253Z 00000KT 10SM CLR 26/23 A3015 RMK AO2 SLP207 T02560228

Conditions at: KBKV observed 17 June 2018  11:53 UTC
Temperature: 23.9°C (75°F)
Dewpoint: 22.8°C (73°F) [RH = 94%]
Pressure (altimeter): 30.12 inches Hg (1020.1 mb)
[Sea-level pressure: 1019.9 mb]
Winds: calm
Visibility: 10 or more miles (16+ km)
Ceiling: at least 12,000 feet AGL
Clouds: sky clear below 12,000 feet AGL
Present Weather: no significant weather observed at this time
KBKV 171153Z 00000KT 10SM CLR 24/23 A3012 RMK AO2 SLP199 T02390228 10239 20222 53011

Conditions at: KBKV observed 17 June 2018  10:53 UTC
Temperature: 22.8°C (73°F)
Dewpoint: 21.7°C (71°F) [RH = 94%]
Pressure (altimeter): 30.11 inches Hg (1019.7 mb)
[Sea-level pressure: 1019.5 mb]
Winds: calm
Visibility: 10 or more miles (16+ km)
Ceiling: at least 12,000 feet AGL
Clouds: sky clear below 12,000 feet AGL
Present Weather: no significant weather observed at this time
KBKV 171053Z 00000KT 10SM CLR 23/22 A3011 RMK AO2 SLP195 T02280217

Conditions at: KBKV observed 17 June 2018  09:53 UTC
Temperature: 22.8°C (73°F)
Dewpoint: 21.7°C (71°F) [RH = 94%]
Pressure (altimeter): 30.10 inches Hg (1019.4 mb)
[Sea-level pressure: 1018.9 mb]
Winds: calm
Visibility: 10 or more miles (16+ km)
Ceiling: at least 12,000 feet AGL
Clouds: sky clear below 12,000 feet AGL
Present Weather: automated observation with no human augmentation;
there may or may not be significant weather present at this time
KBKV 170953Z AUTO 00000KT 10SM CLR 23/22 A3010 RMK AO2 SLP189 T02280217

Conditions at: KBKV observed 17 June 2018  08:53 UTC
Temperature: 22.8°C (73°F)
Dewpoint: 21.7°C (71°F) [RH = 94%]
Pressure (altimeter): 30.09 inches Hg (1019.0 mb)
[Sea-level pressure: 1018.7 mb]
Winds: calm
Visibility: 10 or more miles (16+ km)
Ceiling: at least 12,000 feet AGL
Clouds: sky clear below 12,000 feet AGL
Present Weather: automated observation with no human augmentation;
there may or may not be significant weather present at this time
KBKV 170853Z AUTO 00000KT 10SM CLR 23/22 A3009 RMK AO2 SLP187 T02280217 56003

Conditions at: KBKV observed 17 June 2018  07:53 UTC
Temperature: 23.3°C (74°F)
Dewpoint: 21.7°C (71°F) [RH = 91%]
Pressure (altimeter): 30.09 inches Hg (1019.0 mb)
[Sea-level pressure: 1018.8 mb]
Winds: calm
Visibility: 10 or more miles (16+ km)
Ceiling: at least 12,000 feet AGL
Clouds: sky clear below 12,000 feet AGL
Present Weather: automated observation with no human augmentation;
there may or may not be significant weather present at this time
KBKV 170753Z AUTO 00000KT 10SM CLR 23/22 A3009 RMK AO2 SLP188 T02330217